METAR Formatted Surface Weather Observation
Issued by NWS

Home | Current Version | Previous Version | Text Only | Print | Product List | Glossary On
Versions: 1 2 3 4 5 6 7 8 9 10 11
000
SAUS44 KFWD 232158
MTRNQI
METAR KNQI 232156Z 10006KT 10SM SCT034 SCT070 BKN250 31/22 A2977 RMK
AO2 SLP076 T03110222 $



USA.gov is the U.S. government's official web portal to all federal, state and local government web resources and services.